Time;durP1;ratioP1;P1;durP2;ratioP2;P2;SDS_P1;SDS_P2;PMS_P1;PMS_P2;Temp;Humidity;BMP_temperature;BMP_pressure;BME280_temperature;BME280_humidity;BME280_pressure;Samples;Min_cycle;Max_cycle;Signal;HPM_P1;HPM_P2
2021/03/14 00:03:29;;;;;;;2.98;1.00;;;;;;;9.04;100.00;97693.18;4383012;78;28672;-81
2021/03/14 00:09:33;;;;;;;1.05;0.60;;;;;;;8.66;100.00;97724.44;4391550;80;28552;-81
2021/03/14 00:15:35;;;;;;;1.05;0.40;;;;;;;8.29;100.00;97727.20;4399060;79;28564;-78
2021/03/14 00:21:39;;;;;;;0.90;0.40;;;;;;;8.10;100.00;97717.29;4374259;78;28560;-79
2021/03/14 00:27:43;;;;;;;0.85;0.40;;;;;;;8.00;100.00;97690.39;4384258;80;28590;-80
2021/03/14 00:33:45;;;;;;;1.60;0.45;;;;;;;7.93;100.00;97680.69;4319177;80;28641;-79
2021/03/14 00:39:47;;;;;;;1.27;0.60;;;;;;;7.85;100.00;97681.63;4321073;80;28622;-80
2021/03/14 00:45:50;;;;;;;1.92;0.80;;;;;;;7.89;100.00;97672.85;4319556;80;28573;-79
2021/03/14 00:51:54;;;;;;;1.22;0.85;;;;;;;7.91;100.00;97673.44;4329298;80;28587;-79
2021/03/14 00:57:56;;;;;;;3.10;0.85;;;;;;;7.83;100.00;97682.40;4328072;81;28576;-78
2021/03/14 01:03:59;;;;;;;1.80;0.70;;;;;;;7.81;100.00;97678.66;4318440;80;28541;-79
2021/03/14 01:10:01;;;;;;;1.77;0.88;;;;;;;7.75;100.00;97671.05;4332307;80;28570;-78
2021/03/14 01:16:04;;;;;;;1.20;0.72;;;;;;;7.72;100.00;97686.27;4310481;80;28552;-79
2021/03/14 01:22:09;;;;;;;1.77;0.78;;;;;;;7.67;100.00;97706.27;4323542;81;28637;-79
2021/03/14 01:28:11;;;;;;;1.65;0.80;;;;;;;7.70;100.00;97705.77;4331843;81;28568;-79
2021/03/14 01:34:13;;;;;;;2.02;0.90;;;;;;;7.67;100.00;97711.62;4375334;80;28620;-79
2021/03/14 01:40:17;;;;;;;1.47;0.82;;;;;;;7.64;100.00;97698.72;4421508;80;28646;-79
2021/03/14 01:46:20;;;;;;;1.37;1.00;;;;;;;7.59;100.00;97671.36;4392313;80;28571;-80
2021/03/14 01:52:22;;;;;;;2.08;0.90;;;;;;;7.56;100.00;97676.42;4383633;80;28583;-80
2021/03/14 01:58:26;;;;;;;1.67;0.90;;;;;;;7.60;100.00;97676.20;4407440;80;28553;-80
2021/03/14 02:04:28;;;;;;;2.17;1.10;;;;;;;7.57;100.00;97664.13;4407398;80;28652;-80
2021/03/14 02:10:32;;;;;;;2.15;0.88;;;;;;;7.52;100.00;97693.48;4388147;80;28603;-80
2021/03/14 02:16:40;;;;;;;2.47;1.10;;;;;;;7.46;100.00;97703.29;4381612;80;28583;-80
2021/03/14 02:22:46;;;;;;;3.08;1.10;;;;;;;7.44;100.00;97688.53;4397360;80;28624;-80
2021/03/14 02:28:49;;;;;;;4.33;1.30;;;;;;;7.36;100.00;97697.23;4387650;80;28570;-80
2021/03/14 02:34:59;;;;;;;1.95;0.88;;;;;;;7.33;100.00;97677.68;4423977;80;28551;-80
2021/03/14 02:41:02;;;;;;;2.08;0.82;;;;;;;7.24;100.00;97679.13;4437114;80;28551;-80
2021/03/14 02:47:06;;;;;;;1.90;1.07;;;;;;;7.36;100.00;97662.48;4427150;78;28600;-79
2021/03/14 02:53:09;;;;;;;1.90;0.68;;;;;;;7.36;100.00;97671.84;4412998;79;28653;-81
2021/03/14 02:59:19;;;;;;;1.25;0.53;;;;;;;7.28;100.00;97672.23;4415215;80;28623;-80
2021/03/14 03:05:24;;;;;;;0.65;0.40;;;;;;;7.25;100.00;97660.70;4402968;80;28582;-80
2021/03/14 03:11:26;;;;;;;1.80;0.40;;;;;;;7.13;100.00;97678.69;4422992;80;28576;-81
2021/03/14 03:17:29;;;;;;;0.53;0.25;;;;;;;7.06;100.00;97674.84;4416383;80;28602;-80
2021/03/14 03:23:31;;;;;;;1.12;0.40;;;;;;;6.97;100.00;97671.22;4408482;78;28542;-79
2021/03/14 03:29:33;;;;;;;1.25;0.30;;;;;;;6.98;100.00;97678.19;4383959;80;28585;-79
2021/03/14 03:35:35;;;;;;;0.68;0.37;;;;;;;6.93;100.00;97682.63;4345468;78;28636;-79
2021/03/14 03:41:54;;;;;;;1.37;0.50;;;;;;;6.92;100.00;97677.80;4386332;80;28561;-79
2021/03/14 03:47:58;;;;;;;0.72;0.30;;;;;;;6.90;100.00;97700.48;4411547;79;28586;-81
2021/03/14 03:54:04;;;;;;;1.70;0.50;;;;;;;6.91;100.00;97702.89;4403163;80;28569;-81
2021/03/14 04:00:13;;;;;;;2.15;0.70;;;;;;;6.93;100.00;97692.80;4402843;80;28631;-81
2021/03/14 04:06:17;;;;;;;1.80;0.50;;;;;;;6.95;100.00;97690.70;4395394;80;28553;-81
2021/03/14 04:12:20;;;;;;;1.98;0.60;;;;;;;6.93;100.00;97662.59;4356604;80;28602;-80
2021/03/14 04:18:22;;;;;;;1.40;0.70;;;;;;;6.83;100.00;97681.94;4384459;80;28559;-81
2021/03/14 04:24:29;;;;;;;2.72;0.55;;;;;;;6.83;100.00;97687.28;4406507;79;28549;-82
2021/03/14 04:30:32;;;;;;;1.65;0.53;;;;;;;6.76;100.00;97676.72;4399206;80;28658;-81
2021/03/14 04:36:36;;;;;;;1.80;0.45;;;;;;;6.69;100.00;97680.88;4421483;78;28550;-81
2021/03/14 04:42:41;;;;;;;0.68;0.30;;;;;;;6.67;100.00;97678.97;4413308;79;28579;-81
2021/03/14 04:48:43;;;;;;;1.57;0.50;;;;;;;6.63;100.00;97675.69;4412715;78;28569;-81
2021/03/14 04:54:50;;;;;;;1.40;0.45;;;;;;;6.59;100.00;97683.36;4416927;78;28541;-80
2021/03/14 05:00:53;;;;;;;1.00;0.40;;;;;;;6.55;100.00;97692.91;4407414;80;28544;-80
2021/03/14 05:06:56;;;;;;;1.25;0.60;;;;;;;6.48;100.00;97682.88;4414625;80;28554;-80
2021/03/14 05:12:59;;;;;;;0.75;0.40;;;;;;;6.49;100.00;97693.33;4413884;80;28614;-81
2021/03/14 05:19:03;;;;;;;1.47;0.40;;;;;;;6.45;100.00;97690.04;4408161;78;28623;-81
2021/03/14 05:25:09;;;;;;;0.80;0.40;;;;;;;6.39;100.00;97687.25;4414001;78;28566;-82
2021/03/14 05:31:33;;;;;;;0.90;0.37;;;;;;;6.41;100.00;97675.84;4379575;80;28559;-82
2021/03/14 05:37:36;;;;;;;1.47;0.70;;;;;;;6.37;100.00;97669.88;4334239;81;28583;-81
2021/03/14 05:43:39;;;;;;;1.55;0.68;;;;;;;6.39;100.00;97663.77;4339521;80;28575;-80
2021/03/14 05:49:42;;;;;;;1.30;0.40;;;;;;;6.48;100.00;97656.17;4309193;80;28574;-80
2021/03/14 05:55:49;;;;;;;0.90;0.40;;;;;;;6.46;100.00;97664.45;4340273;80;28556;-80
2021/03/14 06:01:52;;;;;;;2.75;0.60;;;;;;;6.48;100.00;97677.03;4321388;80;28587;-81
2021/03/14 06:07:57;;;;;;;1.50;0.53;;;;;;;6.61;100.00;97662.59;4336655;80;28612;-81
2021/03/14 06:14:01;;;;;;;0.80;0.40;;;;;;;6.83;100.00;97673.92;4325543;80;28614;-81
2021/03/14 06:20:06;;;;;;;0.72;0.40;;;;;;;7.02;100.00;97693.21;4332085;80;28587;-81
2021/03/14 06:26:13;;;;;;;0.98;0.40;;;;;;;7.22;100.00;97691.94;4319031;81;28627;-80
2021/03/14 06:32:15;;;;;;;1.25;0.50;;;;;;;7.40;100.00;97694.89;4375421;80;28553;-85
2021/03/14 06:38:29;;;;;;;1.85;0.60;;;;;;;7.57;100.00;97701.56;4409143;80;28541;-80
2021/03/14 06:44:35;;;;;;;2.35;0.60;;;;;;;7.71;100.00;97710.06;4392830;80;28536;-79
2021/03/14 06:50:41;;;;;;;1.50;0.73;;;;;;;7.67;100.00;97720.45;4402440;80;28548;-80
2021/03/14 06:57:11;;;;;;;1.32;0.70;;;;;;;7.59;100.00;97716.05;4385336;79;28549;-80
2021/03/14 07:03:23;;;;;;;1.22;0.50;;;;;;;7.67;100.00;97739.17;4389673;80;28667;-80
2021/03/14 07:09:26;;;;;;;1.50;0.50;;;;;;;7.71;100.00;97736.03;4375830;80;28543;-80
2021/03/14 07:15:28;;;;;;;1.77;0.65;;;;;;;8.01;98.76;97733.48;4418329;79;28645;-79
2021/03/14 07:21:30;;;;;;;3.45;0.70;;;;;;;8.28;95.51;97736.80;4391522;80;28637;-80
2021/03/14 07:27:33;;;;;;;3.83;1.00;;;;;;;8.38;95.82;97743.63;4403349;79;28553;-79
2021/03/14 07:33:37;;;;;;;2.22;0.80;;;;;;;8.55;93.63;97752.18;4336541;80;28550;-79
2021/03/14 07:39:39;;;;;;;2.80;0.70;;;;;;;8.65;90.78;97742.38;4327915;80;28611;-81
2021/03/14 07:45:43;;;;;;;2.00;0.80;;;;;;;8.85;87.45;97755.73;4320997;80;28669;-78
2021/03/14 07:51:52;;;;;;;3.42;0.82;;;;;;;9.05;86.70;97744.39;4334394;80;28580;-76
2021/03/14 07:57:54;;;;;;;2.42;0.85;;;;;;;9.18;81.35;97760.62;4330632;81;28564;-78
2021/03/14 08:03:56;;;;;;;2.47;0.88;;;;;;;9.42;78.63;97767.55;4311352;81;28627;-80
2021/03/14 08:09:59;;;;;;;1.80;1.00;;;;;;;9.47;75.69;97757.66;4317496;80;28544;-83
2021/03/14 08:16:08;;;;;;;3.87;0.80;;;;;;;9.67;75.13;97756.22;4314551;80;28609;-84
2021/03/14 08:22:43;;;;;;;2.87;1.20;;;;;;;9.63;71.97;97767.17;4316747;80;28617;-82
2021/03/14 08:29:03;;;;;;;2.37;0.80;;;;;;;9.72;72.02;97775.03;4331417;80;28553;-83
2021/03/14 08:35:07;;;;;;;3.02;0.85;;;;;;;9.83;68.92;97799.27;4319851;80;28578;-87
2021/03/14 08:41:39;;;;;;;3.05;0.80;;;;;;;10.09;68.01;97810.20;4326965;80;28568;-84
2021/03/14 08:47:42;;;;;;;2.85;1.07;;;;;;;10.15;65.64;97805.95;4361116;80;28605;-81
2021/03/14 08:53:56;;;;;;;1.30;0.60;;;;;;;10.36;63.62;97816.00;4456664;79;84809;-85
2021/03/14 09:00:02;;;;;;;2.40;0.93;;;;;;;10.19;61.90;97816.44;4304209;80;28540;-81
2021/03/14 09:06:27;;;;;;;2.15;0.80;;;;;;;10.56;61.67;97818.04;4240143;81;28574;-84
2021/03/14 09:12:31;;;;;;;3.58;1.20;;;;;;;10.43;62.75;97832.22;4314013;80;28562;-83
2021/03/14 09:18:54;;;;;;;1.70;0.90;;;;;;;10.90;65.50;97820.88;4381296;79;85133;-86
2021/03/14 09:25:00;;;;;;;2.52;0.90;;;;;;;10.95;62.65;97823.58;4281907;80;28548;-85
2021/03/14 09:31:02;;;;;;;3.67;1.40;;;;;;;11.27;60.15;97822.07;4307260;80;28571;-87
2021/03/14 09:37:07;;;;;;;2.77;0.88;;;;;;;11.35;58.89;97820.73;4298271;81;28652;-87
2021/03/14 09:43:28;;;;;;;3.22;1.07;;;;;;;11.27;57.06;97831.48;4317912;80;28537;-86
2021/03/14 09:50:07;;;;;;;2.15;0.95;;;;;;;10.78;59.56;97842.08;4329444;80;28542;-87
2021/03/14 09:56:28;;;;;;;1.62;0.70;;;;;;;10.82;57.54;97839.65;4537589;76;85060;-87
2021/03/14 10:02:50;;;;;;;2.40;1.10;;;;;;;10.26;60.58;97854.37;4241987;82;28558;-87
2021/03/14 10:09:07;;;;;;;3.92;1.10;;;;;;;10.18;62.22;97857.80;4374774;79;69489;-86
2021/03/14 10:15:16;;;;;;;2.60;0.90;;;;;;;10.19;60.94;97863.45;4311265;80;28575;-86
2021/03/14 10:21:28;;;;;;;2.67;1.10;;;;;;;10.52;60.90;97870.70;4328241;81;28584;-88
2021/03/14 10:27:44;;;;;;;5.33;1.00;;;;;;;10.27;62.50;97880.16;4292914;80;28615;-85
2021/03/14 10:34:01;;;;;;;3.83;0.93;;;;;;;10.09;62.17;97892.12;4596942;76;84797;-89
2021/03/14 10:40:13;;;;;;;;;;;;;;;10.35;61.57;97885.06;4501375;78;28542;-91
2021/03/14 10:46:48;;;;;;;2.47;1.20;;;;;;;9.96;63.27;97887.45;4502064;78;20180;-84
2021/03/14 10:53:08;;;;;;;2.90;1.22;;;;;;;9.93;64.53;97904.05;4493834;78;28538;-84
2021/03/14 10:59:28;;;;;;;2.62;1.37;;;;;;;9.95;63.84;97900.60;4492249;78;28546;-83
2021/03/14 11:05:33;;;;;;;3.30;1.30;;;;;;;9.92;64.28;97916.41;4495744;78;28598;-88
2021/03/14 11:11:49;;;;;;;3.08;1.50;;;;;;;10.15;64.26;97921.44;4476322;78;28613;-87
2021/03/14 11:17:55;;;;;;;3.67;1.57;;;;;;;10.44;64.62;97923.03;4479940;78;28565;-89
2021/03/14 11:23:59;;;;;;;3.52;1.62;;;;;;;10.28;62.88;97928.27;4372120;80;28547;-89
2021/03/14 11:30:06;;;;;;;3.30;1.57;;;;;;;10.62;63.52;97912.42;4375036;79;28584;-91
2021/03/14 11:36:10;;;;;;;4.58;1.60;;;;;;;10.80;62.93;97901.77;4374448;80;28556;-88
2021/03/14 11:42:42;;;;;;;5.33;2.20;;;;;;;10.79;60.55;97900.67;4410902;79;270957;-90
2021/03/14 11:48:46;;;;;;;2.98;1.60;;;;;;;11.52;57.69;97890.47;4365329;81;28669;-89
2021/03/14 11:54:51;;;;;;;4.83;1.90;;;;;;;10.92;57.44;97900.75;4391389;79;28577;-92
2021/03/14 12:00:54;;;;;;;2.67;1.50;;;;;;;11.35;58.82;97893.39;4376828;79;28606;-90
2021/03/14 12:06:59;;;;;;;3.17;1.50;;;;;;;10.90;54.70;97883.52;4387948;80;28579;-90
2021/03/14 12:13:06;;;;;;;3.55;1.67;;;;;;;10.97;55.11;97885.97;4392351;81;28573;-87
2021/03/14 12:19:08;;;;;;;4.30;2.27;;;;;;;11.04;53.72;97878.48;4341386;81;28598;-88
2021/03/14 12:25:11;;;;;;;4.72;2.15;;;;;;;10.81;54.56;97888.59;4260955;82;28669;-85
2021/03/14 12:31:14;;;;;;;5.70;2.40;;;;;;;10.53;54.66;97897.84;4286275;83;28999;-86
2021/03/14 12:37:18;;;;;;;4.87;2.12;;;;;;;10.80;56.86;97885.64;4292405;81;28562;-86
2021/03/14 12:43:22;;;;;;;4.97;2.00;;;;;;;11.00;57.26;97882.23;4249000;83;28571;-88
2021/03/14 12:49:25;;;;;;;3.50;2.05;;;;;;;10.97;56.01;97881.94;4308295;81;28570;-87
2021/03/14 12:55:28;;;;;;;4.35;2.17;;;;;;;11.10;53.91;97894.11;4276391;83;28563;-88
2021/03/14 13:01:30;;;;;;;5.97;2.30;;;;;;;11.07;54.64;97898.67;4265954;83;28627;-91
2021/03/14 13:07:34;;;;;;;5.22;2.02;;;;;;;11.25;55.87;97909.50;4262744;83;28549;-89
2021/03/14 13:13:36;;;;;;;3.95;2.20;;;;;;;10.94;50.20;97913.39;4298347;81;28595;-87
2021/03/14 13:19:39;;;;;;;4.90;2.37;;;;;;;10.83;52.85;97944.27;4296480;83;28581;-87
2021/03/14 13:25:43;;;;;;;4.00;1.90;;;;;;;10.93;52.83;97941.36;4277339;81;28634;-89
2021/03/14 13:31:46;;;;;;;3.35;1.82;;;;;;;10.97;54.26;97941.10;4269727;81;28944;-79
2021/03/14 13:37:48;;;;;;;5.10;1.70;;;;;;;10.91;52.68;97958.30;4289826;81;28588;-79
2021/03/14 13:43:51;;;;;;;6.12;2.22;;;;;;;10.95;53.14;97960.73;4294004;81;28605;-81
2021/03/14 13:49:53;;;;;;;5.60;2.10;;;;;;;10.62;53.99;97969.39;4305817;81;28608;-84
2021/03/14 13:55:55;;;;;;;5.12;2.20;;;;;;;10.74;54.06;97976.73;4301453;81;28587;-80
2021/03/14 14:01:57;;;;;;;5.67;2.22;;;;;;;10.51;54.81;97975.20;4292046;81;28578;-80
2021/03/14 14:08:00;;;;;;;5.40;2.10;;;;;;;10.39;56.28;97978.84;4296996;81;28627;-83
2021/03/14 14:14:04;;;;;;;6.65;2.60;;;;;;;10.41;56.15;97986.17;4303965;81;28594;-79
2021/03/14 14:20:08;;;;;;;4.17;1.77;;;;;;;10.48;55.40;97978.42;4280114;81;28592;-82
2021/03/14 14:26:14;;;;;;;4.47;1.95;;;;;;;10.26;55.05;97986.00;4297253;81;28568;-87
2021/03/14 14:32:17;;;;;;;4.00;2.25;;;;;;;9.94;56.19;97998.30;4308609;81;28635;-82
2021/03/14 14:38:20;;;;;;;5.53;1.70;;;;;;;8.97;88.86;98027.70;4291553;81;28559;-89
2021/03/14 14:44:22;;;;;;;2.33;1.20;;;;;;;8.26;100.00;98035.61;4255157;82;28591;-81
2021/03/14 14:50:24;;;;;;;2.45;1.57;;;;;;;8.07;100.00;98041.70;4240030;82;28564;-82
2021/03/14 14:56:30;;;;;;;5.28;2.17;;;;;;;8.02;100.00;98025.53;4262623;82;28561;-84
2021/03/14 15:02:34;;;;;;;5.28;2.05;;;;;;;8.23;100.00;98033.42;4253984;82;28641;-85
2021/03/14 15:08:37;;;;;;;4.85;2.10;;;;;;;8.25;100.00;98024.63;4244117;83;28606;-85
2021/03/14 15:14:39;;;;;;;4.80;2.20;;;;;;;8.31;100.00;98021.50;4267795;82;28599;-89
2021/03/14 15:20:41;;;;;;;3.20;1.85;;;;;;;8.36;100.00;98021.06;4240847;83;28593;-86
2021/03/14 15:26:43;;;;;;;7.67;2.15;;;;;;;8.51;100.00;98017.86;4265352;82;28575;-91
2021/03/14 15:32:47;;;;;;;5.60;2.47;;;;;;;8.43;100.00;98022.24;4248389;83;28605;-91
2021/03/14 15:38:51;;;;;;;4.90;2.83;;;;;;;8.51;100.00;98018.41;4277816;82;28548;-89
2021/03/14 15:44:53;;;;;;;7.72;2.80;;;;;;;8.36;100.00;98021.61;4296642;81;28617;-84
2021/03/14 15:50:57;;;;;;;6.78;3.05;;;;;;;8.37;100.00;98024.56;4293356;82;28670;-81
2021/03/14 15:57:00;;;;;;;6.20;2.47;;;;;;;8.23;99.59;98006.65;4289448;82;28620;-80
2021/03/14 16:03:05;;;;;;;4.90;2.30;;;;;;;8.19;94.97;98018.36;4292328;82;28953;-81
2021/03/14 16:09:07;;;;;;;5.87;2.45;;;;;;;8.01;94.56;98033.28;4216407;83;28640;-81
2021/03/14 16:15:11;;;;;;;5.37;2.47;;;;;;;7.78;94.27;98040.34;4171970;83;28643;-80
2021/03/14 16:21:13;;;;;;;5.90;2.77;;;;;;;7.52;96.05;98059.91;4202379;83;28647;-79
2021/03/14 16:27:17;;;;;;;6.50;3.05;;;;;;;7.38;96.64;98052.11;4290418;83;28608;-83
2021/03/14 16:33:19;;;;;;;8.15;3.70;;;;;;;7.09;98.78;98071.25;4246789;83;28599;-84
2021/03/14 16:39:22;;;;;;;9.55;4.10;;;;;;;6.80;100.00;98083.95;4282619;80;28574;-89
2021/03/14 16:45:26;;;;;;;14.50;5.45;;;;;;;6.63;100.00;98106.52;4300358;81;28578;-86
2021/03/14 16:51:29;;;;;;;11.05;4.78;;;;;;;6.34;100.00;98112.98;4323114;81;28571;-84
2021/03/14 16:57:31;;;;;;;11.95;4.85;;;;;;;6.23;100.00;98127.09;4239957;82;28569;-79
2021/03/14 17:03:34;;;;;;;11.35;4.83;;;;;;;5.90;100.00;98125.62;4305151;81;28631;-84
2021/03/14 17:09:36;;;;;;;9.40;4.03;;;;;;;5.84;100.00;98134.80;4325075;81;28574;-84
2021/03/14 17:15:39;;;;;;;8.28;3.80;;;;;;;5.78;100.00;98130.36;4300519;81;28564;-86
2021/03/14 17:22:37;;;;;;;8.43;3.67;;;;;;;5.74;94.88;98146.50;4198052;81;28570;-83
2021/03/14 17:28:39;;;;;;;7.50;4.03;;;;;;;5.64;96.01;98155.53;4326503;81;28634;-83
2021/03/14 17:34:41;;;;;;;6.37;2.98;;;;;;;5.54;98.59;98158.71;4298312;81;28578;-80
2021/03/14 17:40:44;;;;;;;7.92;3.85;;;;;;;5.45;100.00;98162.16;4300575;81;28569;-80
2021/03/14 17:46:46;;;;;;;9.50;4.45;;;;;;;5.40;100.00;98176.14;4299838;81;28554;-82
2021/03/14 17:52:48;;;;;;;9.68;4.78;;;;;;;5.34;100.00;98183.70;4298469;81;28597;-85
2021/03/14 17:58:51;;;;;;;11.95;5.30;;;;;;;5.30;100.00;98193.97;4292553;81;28587;-84
2021/03/14 18:04:55;;;;;;;14.05;6.30;;;;;;;5.15;100.00;98196.95;4298340;81;28572;-88
2021/03/14 18:10:57;;;;;;;12.35;5.70;;;;;;;4.90;100.00;98204.11;4320012;81;28598;-82
2021/03/14 18:16:59;;;;;;;13.25;6.20;;;;;;;4.68;100.00;98214.56;4314710;81;28631;-86
2021/03/14 18:23:03;;;;;;;14.83;7.33;;;;;;;4.75;100.00;98215.86;4303052;81;28590;-85
2021/03/14 18:29:08;;;;;;;18.70;9.20;;;;;;;4.71;100.00;98230.64;4306197;82;28567;-88
2021/03/14 18:35:13;;;;;;;18.98;10.43;;;;;;;4.72;100.00;98225.62;4296150;81;28559;-83
2021/03/14 18:41:15;;;;;;;20.00;10.98;;;;;;;4.71;100.00;98222.66;4278873;82;28552;-83
2021/03/14 18:47:17;;;;;;;21.77;12.10;;;;;;;4.65;100.00;98224.82;4263336;81;28643;-83
2021/03/14 18:53:20;;;;;;;22.40;12.37;;;;;;;4.64;100.00;98231.18;4260186;83;28600;-83
2021/03/14 18:59:23;;;;;;;20.97;10.18;;;;;;;4.53;100.00;98235.31;4276409;81;28623;-83
2021/03/14 19:05:27;;;;;;;20.88;9.73;;;;;;;4.31;100.00;98233.77;4280285;81;28569;-83
2021/03/14 19:11:29;;;;;;;17.32;8.75;;;;;;;4.28;100.00;98237.36;4266329;82;28623;-82
2021/03/14 19:17:31;;;;;;;19.62;8.58;;;;;;;4.27;100.00;98241.88;4273852;82;28628;-83
2021/03/14 19:23:35;;;;;;;17.52;8.10;;;;;;;4.29;100.00;98253.13;4273877;81;28604;-82
2021/03/14 19:29:38;;;;;;;16.27;7.25;;;;;;;4.31;100.00;98242.25;4257089;81;28590;-83
2021/03/14 19:35:42;;;;;;;14.90;6.75;;;;;;;4.34;100.00;98240.52;4277819;81;28612;-82
2021/03/14 19:41:46;;;;;;;13.65;6.25;;;;;;;4.33;100.00;98248.20;4296175;81;28580;-82
2021/03/14 19:47:48;;;;;;;13.35;6.85;;;;;;;4.24;100.00;98272.88;4318772;81;28613;-82
2021/03/14 19:53:53;;;;;;;14.23;6.97;;;;;;;4.09;100.00;98267.80;4307841;81;28587;-84
2021/03/14 19:59:55;;;;;;;16.73;7.62;;;;;;;3.98;100.00;98277.25;4319334;81;28634;-85
2021/03/14 20:05:58;;;;;;;16.05;7.53;;;;;;;3.84;100.00;98286.24;4300450;81;28594;-81
2021/03/14 20:12:01;;;;;;;13.75;6.67;;;;;;;3.83;100.00;98285.44;4304794;81;28560;-82
2021/03/14 20:18:04;;;;;;;15.43;6.78;;;;;;;3.72;100.00;98298.03;4304108;81;28560;-81
2021/03/14 20:24:08;;;;;;;15.32;7.22;;;;;;;3.70;100.00;98306.73;4323098;81;28619;-83
2021/03/14 20:30:12;;;;;;;18.65;8.55;;;;;;;3.72;100.00;98304.15;4312278;81;28567;-78
2021/03/14 20:36:15;;;;;;;16.62;8.30;;;;;;;3.54;100.00;98308.75;4301677;81;28568;-82
2021/03/14 20:42:17;;;;;;;18.55;8.35;;;;;;;3.49;100.00;98303.23;4298066;81;28627;-81
2021/03/14 20:48:19;;;;;;;16.62;8.48;;;;;;;3.46;100.00;98310.27;4279467;81;28584;-83
2021/03/14 20:54:22;;;;;;;17.00;8.65;;;;;;;3.41;100.00;98310.88;4281408;83;28621;-81
2021/03/14 21:00:27;;;;;;;19.12;9.28;;;;;;;3.41;100.00;98320.17;4281737;82;28701;-80
2021/03/14 21:06:29;;;;;;;23.50;10.23;;;;;;;3.23;100.00;98327.90;4267114;81;28628;-79
2021/03/14 21:12:32;;;;;;;20.48;9.80;;;;;;;2.99;100.00;98324.78;4266549;81;28576;-80
2021/03/14 21:18:35;;;;;;;20.25;9.90;;;;;;;2.77;100.00;98325.73;4274851;81;28564;-78
2021/03/14 21:24:37;;;;;;;21.02;9.83;;;;;;;2.72;100.00;98329.48;4296265;82;28553;-80
2021/03/14 21:30:40;;;;;;;18.92;10.25;;;;;;;2.69;100.00;98327.72;4279300;81;28566;-86
2021/03/14 21:36:44;;;;;;;19.80;9.48;;;;;;;2.89;100.00;98326.49;4286389;81;28601;-82
2021/03/14 21:42:47;;;;;;;19.62;9.15;;;;;;;3.20;100.00;98321.98;4302468;81;28566;-82
2021/03/14 21:48:49;;;;;;;22.60;9.60;;;;;;;3.43;100.00;98329.28;4231289;82;28567;-81
2021/03/14 21:54:51;;;;;;;23.87;10.70;;;;;;;3.35;100.00;98331.63;4323633;81;28606;-81
2021/03/14 22:00:55;;;;;;;22.90;9.43;;;;;;;3.31;100.00;98344.49;4324056;81;28643;-80
2021/03/14 22:06:57;;;;;;;23.10;9.85;;;;;;;3.32;100.00;98346.63;4327078;81;28586;-81
2021/03/14 22:12:59;;;;;;;25.48;10.48;;;;;;;3.25;100.00;98351.12;4321459;81;28583;-79
2021/03/14 22:19:01;;;;;;;18.85;9.55;;;;;;;3.04;100.00;98356.36;4321270;81;28602;-80
2021/03/14 22:25:06;;;;;;;25.85;10.85;;;;;;;3.00;100.00;98365.75;4323573;81;28585;-78
2021/03/14 22:31:08;;;;;;;25.57;10.58;;;;;;;2.97;100.00;98367.48;4313867;81;28576;-78
2021/03/14 22:37:10;;;;;;;25.75;11.28;;;;;;;2.89;100.00;98379.59;4312637;82;28658;-78
2021/03/14 22:43:12;;;;;;;25.52;11.12;;;;;;;2.63;100.00;98366.48;4305315;81;28671;-77
2021/03/14 22:49:15;;;;;;;23.85;10.85;;;;;;;2.40;100.00;98367.59;4323400;81;28636;-79
2021/03/14 22:55:17;;;;;;;24.40;11.20;;;;;;;2.34;100.00;98365.70;4319483;81;28631;-78
2021/03/14 23:01:19;;;;;;;24.75;11.15;;;;;;;2.37;100.00;98367.98;4332792;81;28572;-77
2021/03/14 23:07:21;;;;;;;25.97;11.65;;;;;;;2.35;100.00;98359.41;4317126;81;28543;-77
2021/03/14 23:13:24;;;;;;;29.27;12.25;;;;;;;2.28;100.00;98364.64;4328859;81;28565;-78
2021/03/14 23:19:27;;;;;;;26.17;11.12;;;;;;;2.05;100.00;98363.58;4321658;81;28637;-78
2021/03/14 23:25:33;;;;;;;32.15;12.65;;;;;;;1.89;100.00;98376.09;4322422;81;28568;-77
2021/03/14 23:31:36;;;;;;;24.32;11.43;;;;;;;1.74;100.00;98365.56;4328963;82;28631;-76
2021/03/14 23:37:39;;;;;;;25.37;10.55;;;;;;;1.84;100.00;98353.33;4329242;82;28572;-77
2021/03/14 23:43:42;;;;;;;27.27;12.23;;;;;;;2.01;100.00;98351.70;4311291;82;28583;-77
2021/03/14 23:49:44;;;;;;;29.00;13.32;;;;;;;2.01;100.00;98342.42;4286039;81;28580;-77
2021/03/14 23:55:50;;;;;;;27.70;13.00;;;;;;;2.03;100.00;98349.18;4299444;83;28595;-77
